Atkins, Iowa
Current Conditions -  °F | °C
As of 11:52 AM on Wednesday 26 Nov 2014 (Local Time) from KCID Reporting Station
Haze Haze  
Wind Chill: 17°   Ceiling: 5000
Heat Index: 28°   Visibility: 6mi
Dew Point: 25°   Wind: 15mph
Humidity: 88%   Direction: 90°E
Pressure: 30"   Gusts: NA
Location:  42°N, 91.86°W
Report Text: KCID 261752Z 09013KT 6SM BR OVC050 M02/M04 A3000 RMK AO2 SLP172 T10221039 11022 21056 50001
Loading
Personal Weather Stations






























Interactive Weather Map New forecast layout! Learn more

10-Day Weather Forecast

Advertisements
Track Severe Weather on mobile